sensor_id;sensor_type;location;lat;lon;timestamp;P1;durP1;ratioP1;P2;durP2;ratioP2
39208;SDS011;24929;51.982;4.664;2023-05-08T00:00:47;36.40;;;31.67;;
39208;SDS011;24929;51.982;4.664;2023-05-08T00:03:12;40.92;;;35.33;;
39208;SDS011;24929;51.982;4.664;2023-05-08T00:05:40;45.17;;;35.50;;
39208;SDS011;24929;51.982;4.664;2023-05-08T00:08:06;51.45;;;40.00;;
39208;SDS011;24929;51.982;4.664;2023-05-08T00:10:31;49.25;;;42.00;;
39208;SDS011;24929;51.982;4.664;2023-05-08T00:12:57;48.25;;;39.25;;
39208;SDS011;24929;51.982;4.664;2023-05-08T00:15:23;55.58;;;41.22;;
39208;SDS011;24929;51.982;4.664;2023-05-08T00:17:48;52.75;;;41.70;;
39208;SDS011;24929;51.982;4.664;2023-05-08T00:20:13;46.63;;;40.90;;
39208;SDS011;24929;51.982;4.664;2023-05-08T00:22:39;54.45;;;40.00;;
39208;SDS011;24929;51.982;4.664;2023-05-08T00:25:04;49.00;;;39.67;;
39208;SDS011;24929;51.982;4.664;2023-05-08T00:27:30;50.20;;;40.65;;
39208;SDS011;24929;51.982;4.664;2023-05-08T00:29:56;48.55;;;41.35;;
39208;SDS011;24929;51.982;4.664;2023-05-08T00:32:22;51.78;;;39.10;;
39208;SDS011;24929;51.982;4.664;2023-05-08T00:34:48;52.53;;;45.00;;
39208;SDS011;24929;51.982;4.664;2023-05-08T00:37:14;50.20;;;40.78;;
39208;SDS011;24929;51.982;4.664;2023-05-08T00:39:39;51.97;;;41.10;;
39208;SDS011;24929;51.982;4.664;2023-05-08T00:42:04;47.45;;;39.25;;
39208;SDS011;24929;51.982;4.664;2023-05-08T00:44:30;48.05;;;37.80;;
39208;SDS011;24929;51.982;4.664;2023-05-08T00:46:56;46.50;;;38.15;;
39208;SDS011;24929;51.982;4.664;2023-05-08T00:49:21;45.50;;;34.95;;
39208;SDS011;24929;51.982;4.664;2023-05-08T00:51:48;43.25;;;36.75;;
39208;SDS011;24929;51.982;4.664;2023-05-08T00:54:16;45.22;;;36.45;;
39208;SDS011;24929;51.982;4.664;2023-05-08T00:56:43;43.45;;;36.70;;
39208;SDS011;24929;51.982;4.664;2023-05-08T00:59:10;42.33;;;35.65;;
39208;SDS011;24929;51.982;4.664;2023-05-08T01:01:38;41.72;;;36.92;;
39208;SDS011;24929;51.982;4.664;2023-05-08T01:04:05;50.05;;;39.30;;
39208;SDS011;24929;51.982;4.664;2023-05-08T01:06:31;39.95;;;35.30;;
39208;SDS011;24929;51.982;4.664;2023-05-08T01:08:58;47.13;;;35.65;;
39208;SDS011;24929;51.982;4.664;2023-05-08T01:14:06;53.35;;;39.17;;
39208;SDS011;24929;51.982;4.664;2023-05-08T01:16:59;46.47;;;38.45;;
39208;SDS011;24929;51.982;4.664;2023-05-08T01:28:48;43.70;;;35.00;;
39208;SDS011;24929;51.982;4.664;2023-05-08T01:34:30;44.92;;;36.42;;
39208;SDS011;24929;51.982;4.664;2023-05-08T01:37:05;45.78;;;38.47;;
39208;SDS011;24929;51.982;4.664;2023-05-08T01:39:46;42.92;;;37.90;;
39208;SDS011;24929;51.982;4.664;2023-05-08T01:45:48;46.65;;;38.95;;
39208;SDS011;24929;51.982;4.664;2023-05-08T01:48:33;48.42;;;41.10;;
39208;SDS011;24929;51.982;4.664;2023-05-08T01:51:06;46.22;;;40.17;;
39208;SDS011;24929;51.982;4.664;2023-05-08T01:53:42;44.45;;;39.42;;
39208;SDS011;24929;51.982;4.664;2023-05-08T01:56:12;48.55;;;39.55;;
39208;SDS011;24929;51.982;4.664;2023-05-08T01:58:41;42.60;;;36.30;;
39208;SDS011;24929;51.982;4.664;2023-05-08T02:01:07;34.92;;;28.35;;
39208;SDS011;24929;51.982;4.664;2023-05-08T02:03:35;37.85;;;26.50;;
39208;SDS011;24929;51.982;4.664;2023-05-08T02:06:03;37.72;;;31.63;;
39208;SDS011;24929;51.982;4.664;2023-05-08T02:08:30;34.10;;;29.35;;
39208;SDS011;24929;51.982;4.664;2023-05-08T02:10:57;38.40;;;30.08;;
39208;SDS011;24929;51.982;4.664;2023-05-08T02:13:24;32.60;;;28.98;;
39208;SDS011;24929;51.982;4.664;2023-05-08T02:15:54;33.78;;;30.10;;
39208;SDS011;24929;51.982;4.664;2023-05-08T02:18:22;35.70;;;31.25;;
39208;SDS011;24929;51.982;4.664;2023-05-08T02:20:50;40.65;;;33.38;;
39208;SDS011;24929;51.982;4.664;2023-05-08T02:23:16;39.53;;;32.15;;
39208;SDS011;24929;51.982;4.664;2023-05-08T02:25:43;40.13;;;31.65;;
39208;SDS011;24929;51.982;4.664;2023-05-08T02:28:11;36.83;;;32.47;;
39208;SDS011;24929;51.982;4.664;2023-05-08T02:30:36;39.05;;;33.30;;
39208;SDS011;24929;51.982;4.664;2023-05-08T02:33:04;44.72;;;35.08;;
39208;SDS011;24929;51.982;4.664;2023-05-08T02:35:34;51.53;;;39.35;;
39208;SDS011;24929;51.982;4.664;2023-05-08T02:38:02;45.47;;;38.00;;
39208;SDS011;24929;51.982;4.664;2023-05-08T02:40:35;45.30;;;37.75;;
39208;SDS011;24929;51.982;4.664;2023-05-08T02:43:03;53.20;;;42.13;;
39208;SDS011;24929;51.982;4.664;2023-05-08T02:45:32;51.97;;;41.47;;
39208;SDS011;24929;51.982;4.664;2023-05-08T02:50:57;50.35;;;42.67;;
39208;SDS011;24929;51.982;4.664;2023-05-08T02:54:01;54.90;;;42.30;;
39208;SDS011;24929;51.982;4.664;2023-05-08T02:56:35;48.58;;;38.65;;
39208;SDS011;24929;51.982;4.664;2023-05-08T02:59:09;52.25;;;40.70;;
39208;SDS011;24929;51.982;4.664;2023-05-08T03:04:25;56.35;;;42.15;;
39208;SDS011;24929;51.982;4.664;2023-05-08T03:06:55;57.67;;;43.50;;
39208;SDS011;24929;51.982;4.664;2023-05-08T03:09:22;57.45;;;43.85;;
39208;SDS011;24929;51.982;4.664;2023-05-08T03:11:58;52.55;;;44.00;;
39208;SDS011;24929;51.982;4.664;2023-05-08T03:14:28;47.53;;;39.90;;
39208;SDS011;24929;51.982;4.664;2023-05-08T03:16:56;51.60;;;41.75;;
39208;SDS011;24929;51.982;4.664;2023-05-08T03:19:30;58.13;;;45.22;;
39208;SDS011;24929;51.982;4.664;2023-05-08T03:21:59;51.67;;;41.50;;
39208;SDS011;24929;51.982;4.664;2023-05-08T03:24:27;57.72;;;44.05;;
39208;SDS011;24929;51.982;4.664;2023-05-08T03:26:55;55.30;;;43.25;;
39208;SDS011;24929;51.982;4.664;2023-05-08T03:29:23;57.40;;;43.53;;
39208;SDS011;24929;51.982;4.664;2023-05-08T03:31:50;56.22;;;41.95;;
39208;SDS011;24929;51.982;4.664;2023-05-08T03:34:16;53.45;;;42.00;;
39208;SDS011;24929;51.982;4.664;2023-05-08T03:36:43;55.45;;;44.15;;
39208;SDS011;24929;51.982;4.664;2023-05-08T03:39:09;56.85;;;40.63;;
39208;SDS011;24929;51.982;4.664;2023-05-08T03:41:35;44.97;;;38.63;;
39208;SDS011;24929;51.982;4.664;2023-05-08T03:44:01;38.15;;;33.90;;
39208;SDS011;24929;51.982;4.664;2023-05-08T03:46:27;38.28;;;31.65;;
39208;SDS011;24929;51.982;4.664;2023-05-08T03:48:55;61.55;;;30.40;;
39208;SDS011;24929;51.982;4.664;2023-05-08T03:51:24;46.95;;;30.52;;
39208;SDS011;24929;51.982;4.664;2023-05-08T03:53:50;42.33;;;30.77;;
39208;SDS011;24929;51.982;4.664;2023-05-08T03:56:15;41.10;;;32.05;;
39208;SDS011;24929;51.982;4.664;2023-05-08T03:58:53;33.78;;;28.25;;
39208;SDS011;24929;51.982;4.664;2023-05-08T04:01:30;35.30;;;30.55;;
39208;SDS011;24929;51.982;4.664;2023-05-08T04:08:07;43.15;;;34.25;;
39208;SDS011;24929;51.982;4.664;2023-05-08T04:10:11;41.97;;;34.72;;
39208;SDS011;24929;51.982;4.664;2023-05-08T04:15:28;46.10;;;36.33;;
39208;SDS011;24929;51.982;4.664;2023-05-08T04:18:07;50.13;;;39.17;;
39208;SDS011;24929;51.982;4.664;2023-05-08T04:20:34;48.13;;;36.58;;
39208;SDS011;24929;51.982;4.664;2023-05-08T04:23:02;51.10;;;37.65;;
39208;SDS011;24929;51.982;4.664;2023-05-08T04:25:28;45.70;;;37.08;;
39208;SDS011;24929;51.982;4.664;2023-05-08T04:27:57;48.17;;;35.78;;
39208;SDS011;24929;51.982;4.664;2023-05-08T04:30:23;49.72;;;37.42;;
39208;SDS011;24929;51.982;4.664;2023-05-08T04:32:49;51.72;;;35.03;;
39208;SDS011;24929;51.982;4.664;2023-05-08T04:35:16;48.25;;;37.08;;
39208;SDS011;24929;51.982;4.664;2023-05-08T04:37:42;53.90;;;36.90;;
39208;SDS011;24929;51.982;4.664;2023-05-08T04:40:08;48.00;;;37.75;;
39208;SDS011;24929;51.982;4.664;2023-05-08T04:42:34;51.70;;;36.92;;
39208;SDS011;24929;51.982;4.664;2023-05-08T04:45:00;47.58;;;37.33;;
39208;SDS011;24929;51.982;4.664;2023-05-08T04:47:26;45.25;;;36.75;;
39208;SDS011;24929;51.982;4.664;2023-05-08T04:49:51;46.92;;;38.05;;
39208;SDS011;24929;51.982;4.664;2023-05-08T04:52:16;48.92;;;37.80;;
39208;SDS011;24929;51.982;4.664;2023-05-08T04:54:42;51.40;;;38.65;;
39208;SDS011;24929;51.982;4.664;2023-05-08T04:57:07;54.20;;;40.72;;
39208;SDS011;24929;51.982;4.664;2023-05-08T04:59:33;50.20;;;39.17;;
39208;SDS011;24929;51.982;4.664;2023-05-08T05:01:58;49.25;;;37.40;;
39208;SDS011;24929;51.982;4.664;2023-05-08T05:04:26;55.40;;;34.70;;
39208;SDS011;24929;51.982;4.664;2023-05-08T05:06:52;43.90;;;34.35;;
39208;SDS011;24929;51.982;4.664;2023-05-08T05:09:17;40.20;;;30.58;;
39208;SDS011;24929;51.982;4.664;2023-05-08T05:11:43;35.30;;;30.83;;
39208;SDS011;24929;51.982;4.664;2023-05-08T05:14:08;52.67;;;32.95;;
39208;SDS011;24929;51.982;4.664;2023-05-08T05:16:33;53.20;;;30.55;;
39208;SDS011;24929;51.982;4.664;2023-05-08T05:18:59;52.70;;;30.80;;
39208;SDS011;24929;51.982;4.664;2023-05-08T05:21:24;38.80;;;30.50;;
39208;SDS011;24929;51.982;4.664;2023-05-08T05:23:50;46.55;;;27.38;;
39208;SDS011;24929;51.982;4.664;2023-05-08T05:33:06;53.97;;;32.03;;
39208;SDS011;24929;51.982;4.664;2023-05-08T05:35:32;49.67;;;33.53;;
39208;SDS011;24929;51.982;4.664;2023-05-08T05:37:57;76.57;;;34.67;;
39208;SDS011;24929;51.982;4.664;2023-05-08T05:40:23;53.92;;;35.72;;
39208;SDS011;24929;51.982;4.664;2023-05-08T05:42:48;54.13;;;33.25;;
39208;SDS011;24929;51.982;4.664;2023-05-08T05:45:14;85.00;;;35.60;;
39208;SDS011;24929;51.982;4.664;2023-05-08T05:47:55;36.20;;;31.15;;
39208;SDS011;24929;51.982;4.664;2023-05-08T05:50:20;55.60;;;34.25;;
39208;SDS011;24929;51.982;4.664;2023-05-08T05:52:46;63.97;;;34.85;;
39208;SDS011;24929;51.982;4.664;2023-05-08T05:55:12;40.97;;;33.20;;
39208;SDS011;24929;51.982;4.664;2023-05-08T05:57:37;42.15;;;33.75;;
39208;SDS011;24929;51.982;4.664;2023-05-08T06:00:03;61.10;;;35.47;;
39208;SDS011;24929;51.982;4.664;2023-05-08T06:02:30;54.72;;;37.45;;
39208;SDS011;24929;51.982;4.664;2023-05-08T06:04:57;56.67;;;37.17;;
39208;SDS011;24929;51.982;4.664;2023-05-08T06:07:23;49.33;;;36.63;;
39208;SDS011;24929;51.982;4.664;2023-05-08T06:09:48;52.03;;;37.60;;
39208;SDS011;24929;51.982;4.664;2023-05-08T06:12:15;55.58;;;39.15;;
39208;SDS011;24929;51.982;4.664;2023-05-08T06:14:42;49.83;;;38.33;;
39208;SDS011;24929;51.982;4.664;2023-05-08T06:17:07;55.20;;;40.92;;
39208;SDS011;24929;51.982;4.664;2023-05-08T06:19:32;56.83;;;39.45;;
39208;SDS011;24929;51.982;4.664;2023-05-08T06:21:58;56.85;;;38.22;;
39208;SDS011;24929;51.982;4.664;2023-05-08T06:24:24;52.88;;;40.40;;
39208;SDS011;24929;51.982;4.664;2023-05-08T06:26:49;52.65;;;38.78;;
39208;SDS011;24929;51.982;4.664;2023-05-08T06:29:15;54.03;;;38.33;;
39208;SDS011;24929;51.982;4.664;2023-05-08T06:31:40;53.17;;;36.35;;
39208;SDS011;24929;51.982;4.664;2023-05-08T06:34:05;60.15;;;40.47;;
39208;SDS011;24929;51.982;4.664;2023-05-08T06:36:31;53.58;;;36.17;;
39208;SDS011;24929;51.982;4.664;2023-05-08T06:38:56;55.20;;;35.60;;
39208;SDS011;24929;51.982;4.664;2023-05-08T06:41:22;52.83;;;36.63;;
39208;SDS011;24929;51.982;4.664;2023-05-08T06:43:47;50.30;;;32.80;;
39208;SDS011;24929;51.982;4.664;2023-05-08T06:46:13;50.83;;;33.63;;
39208;SDS011;24929;51.982;4.664;2023-05-08T06:48:38;51.75;;;30.45;;
39208;SDS011;24929;51.982;4.664;2023-05-08T06:51:03;47.90;;;29.38;;
39208;SDS011;24929;51.982;4.664;2023-05-08T06:53:29;45.63;;;29.58;;
39208;SDS011;24929;51.982;4.664;2023-05-08T06:55:55;43.63;;;29.20;;
39208;SDS011;24929;51.982;4.664;2023-05-08T06:58:22;41.08;;;26.67;;
39208;SDS011;24929;51.982;4.664;2023-05-08T07:00:48;41.40;;;25.33;;
39208;SDS011;24929;51.982;4.664;2023-05-08T07:03:13;38.10;;;23.92;;
39208;SDS011;24929;51.982;4.664;2023-05-08T07:05:38;33.17;;;19.67;;
39208;SDS011;24929;51.982;4.664;2023-05-08T07:08:04;29.83;;;17.60;;
39208;SDS011;24929;51.982;4.664;2023-05-08T07:10:29;34.08;;;19.15;;
39208;SDS011;24929;51.982;4.664;2023-05-08T07:12:55;27.88;;;17.85;;
39208;SDS011;24929;51.982;4.664;2023-05-08T07:15:20;32.63;;;17.88;;
39208;SDS011;24929;51.982;4.664;2023-05-08T07:17:46;30.05;;;16.55;;
39208;SDS011;24929;51.982;4.664;2023-05-08T07:20:11;29.83;;;17.08;;
39208;SDS011;24929;51.982;4.664;2023-05-08T07:22:37;33.72;;;18.30;;
39208;SDS011;24929;51.982;4.664;2023-05-08T07:25:02;30.02;;;18.40;;
39208;SDS011;24929;51.982;4.664;2023-05-08T07:27:28;33.92;;;17.92;;
39208;SDS011;24929;51.982;4.664;2023-05-08T07:29:54;28.35;;;17.98;;
39208;SDS011;24929;51.982;4.664;2023-05-08T07:32:21;28.83;;;17.10;;
39208;SDS011;24929;51.982;4.664;2023-05-08T07:34:46;26.15;;;16.58;;
39208;SDS011;24929;51.982;4.664;2023-05-08T07:37:12;28.33;;;18.58;;
39208;SDS011;24929;51.982;4.664;2023-05-08T07:42:28;35.88;;;16.63;;
39208;SDS011;24929;51.982;4.664;2023-05-08T07:44:54;29.23;;;17.70;;
39208;SDS011;24929;51.982;4.664;2023-05-08T07:47:19;30.73;;;18.05;;
39208;SDS011;24929;51.982;4.664;2023-05-08T07:49:44;23.58;;;17.23;;
39208;SDS011;24929;51.982;4.664;2023-05-08T07:52:10;26.08;;;17.83;;
39208;SDS011;24929;51.982;4.664;2023-05-08T07:54:35;28.35;;;16.05;;
39208;SDS011;24929;51.982;4.664;2023-05-08T07:57:00;35.20;;;17.70;;
39208;SDS011;24929;51.982;4.664;2023-05-08T07:59:26;28.10;;;16.30;;
39208;SDS011;24929;51.982;4.664;2023-05-08T08:01:51;32.58;;;18.55;;
39208;SDS011;24929;51.982;4.664;2023-05-08T08:04:16;25.58;;;18.17;;
39208;SDS011;24929;51.982;4.664;2023-05-08T08:06:42;28.73;;;18.40;;
39208;SDS011;24929;51.982;4.664;2023-05-08T08:09:07;26.67;;;18.27;;
39208;SDS011;24929;51.982;4.664;2023-05-08T08:11:33;32.45;;;17.75;;
39208;SDS011;24929;51.982;4.664;2023-05-08T08:13:58;29.63;;;18.20;;
39208;SDS011;24929;51.982;4.664;2023-05-08T08:16:23;27.83;;;17.35;;
39208;SDS011;24929;51.982;4.664;2023-05-08T08:18:49;23.35;;;16.05;;
39208;SDS011;24929;51.982;4.664;2023-05-08T08:21:16;27.23;;;16.17;;
39208;SDS011;24929;51.982;4.664;2023-05-08T08:23:42;27.17;;;15.18;;
39208;SDS011;24929;51.982;4.664;2023-05-08T08:26:07;28.98;;;15.73;;
39208;SDS011;24929;51.982;4.664;2023-05-08T08:28:32;21.60;;;16.33;;
39208;SDS011;24929;51.982;4.664;2023-05-08T08:30:58;23.65;;;16.27;;
39208;SDS011;24929;51.982;4.664;2023-05-08T08:33:23;31.17;;;16.33;;
39208;SDS011;24929;51.982;4.664;2023-05-08T08:35:52;27.17;;;16.33;;
39208;SDS011;24929;51.982;4.664;2023-05-08T08:38:17;25.60;;;18.02;;
39208;SDS011;24929;51.982;4.664;2023-05-08T08:40:43;30.85;;;16.25;;
39208;SDS011;24929;51.982;4.664;2023-05-08T08:43:08;26.48;;;16.58;;
39208;SDS011;24929;51.982;4.664;2023-05-08T08:45:35;30.35;;;16.75;;
39208;SDS011;24929;51.982;4.664;2023-05-08T08:48:01;26.13;;;16.70;;
39208;SDS011;24929;51.982;4.664;2023-05-08T08:50:31;27.27;;;17.95;;
39208;SDS011;24929;51.982;4.664;2023-05-08T08:53:06;26.50;;;17.25;;
39208;SDS011;24929;51.982;4.664;2023-05-08T08:55:37;21.63;;;16.98;;
39208;SDS011;24929;51.982;4.664;2023-05-08T08:58:13;27.88;;;17.27;;
39208;SDS011;24929;51.982;4.664;2023-05-08T09:00:40;27.85;;;18.90;;
39208;SDS011;24929;51.982;4.664;2023-05-08T09:03:05;23.42;;;15.98;;
39208;SDS011;24929;51.982;4.664;2023-05-08T09:05:31;26.63;;;15.82;;
39208;SDS011;24929;51.982;4.664;2023-05-08T09:07:57;22.15;;;16.80;;
39208;SDS011;24929;51.982;4.664;2023-05-08T09:10:23;25.00;;;17.08;;
39208;SDS011;24929;51.982;4.664;2023-05-08T09:12:49;23.05;;;17.40;;
39208;SDS011;24929;51.982;4.664;2023-05-08T09:15:14;20.90;;;15.98;;
39208;SDS011;24929;51.982;4.664;2023-05-08T09:17:40;23.95;;;16.88;;
39208;SDS011;24929;51.982;4.664;2023-05-08T09:20:06;27.10;;;17.35;;
39208;SDS011;24929;51.982;4.664;2023-05-08T09:22:34;25.25;;;18.15;;
39208;SDS011;24929;51.982;4.664;2023-05-08T09:25:00;26.25;;;17.90;;
39208;SDS011;24929;51.982;4.664;2023-05-08T09:27:27;24.85;;;17.52;;
39208;SDS011;24929;51.982;4.664;2023-05-08T09:32:33;25.05;;;16.83;;
39208;SDS011;24929;51.982;4.664;2023-05-08T09:35:00;20.50;;;15.45;;
39208;SDS011;24929;51.982;4.664;2023-05-08T09:37:26;21.77;;;15.38;;
39208;SDS011;24929;51.982;4.664;2023-05-08T09:39:52;20.70;;;15.20;;
39208;SDS011;24929;51.982;4.664;2023-05-08T09:42:18;24.17;;;15.18;;
39208;SDS011;24929;51.982;4.664;2023-05-08T09:44:46;22.90;;;17.15;;
39208;SDS011;24929;51.982;4.664;2023-05-08T09:47:14;26.80;;;16.77;;
39208;SDS011;24929;51.982;4.664;2023-05-08T09:49:59;27.45;;;17.35;;
39208;SDS011;24929;51.982;4.664;2023-05-08T09:52:30;24.20;;;17.92;;
39208;SDS011;24929;51.982;4.664;2023-05-08T09:55:00;32.60;;;20.65;;
39208;SDS011;24929;51.982;4.664;2023-05-08T09:57:33;41.88;;;20.00;;
39208;SDS011;24929;51.982;4.664;2023-05-08T10:00:09;39.95;;;21.98;;
39208;SDS011;24929;51.982;4.664;2023-05-08T10:02:37;35.25;;;20.60;;
39208;SDS011;24929;51.982;4.664;2023-05-08T10:10:23;33.50;;;18.77;;
39208;SDS011;24929;51.982;4.664;2023-05-08T10:12:53;30.88;;;19.98;;
39208;SDS011;24929;51.982;4.664;2023-05-08T10:15:23;55.05;;;25.15;;
39208;SDS011;24929;51.982;4.664;2023-05-08T10:18:02;34.00;;;19.05;;
39208;SDS011;24929;51.982;4.664;2023-05-08T10:20:30;35.80;;;18.85;;
39208;SDS011;24929;51.982;4.664;2023-05-08T10:22:56;30.10;;;20.08;;
39208;SDS011;24929;51.982;4.664;2023-05-08T10:25:23;28.85;;;19.10;;
39208;SDS011;24929;51.982;4.664;2023-05-08T10:30:24;28.05;;;20.52;;
39208;SDS011;24929;51.982;4.664;2023-05-08T10:32:51;25.90;;;17.98;;
39208;SDS011;24929;51.982;4.664;2023-05-08T10:35:22;23.95;;;17.70;;
39208;SDS011;24929;51.982;4.664;2023-05-08T10:37:48;24.95;;;16.85;;
39208;SDS011;24929;51.982;4.664;2023-05-08T10:40:14;23.85;;;16.17;;
39208;SDS011;24929;51.982;4.664;2023-05-08T10:42:45;24.17;;;15.07;;
39208;SDS011;24929;51.982;4.664;2023-05-08T10:45:11;27.13;;;15.98;;
39208;SDS011;24929;51.982;4.664;2023-05-08T10:55:43;19.77;;;14.48;;
39208;SDS011;24929;51.982;4.664;2023-05-08T10:58:12;23.38;;;16.25;;
39208;SDS011;24929;51.982;4.664;2023-05-08T11:05:56;19.73;;;15.20;;
39208;SDS011;24929;51.982;4.664;2023-05-08T11:08:23;17.40;;;13.45;;
39208;SDS011;24929;51.982;4.664;2023-05-08T11:10:59;16.80;;;13.63;;
39208;SDS011;24929;51.982;4.664;2023-05-08T11:13:34;21.42;;;15.18;;
39208;SDS011;24929;51.982;4.664;2023-05-08T11:16:00;24.67;;;14.60;;
39208;SDS011;24929;51.982;4.664;2023-05-08T11:18:26;19.20;;;14.85;;
39208;SDS011;24929;51.982;4.664;2023-05-08T11:23:33;24.30;;;14.20;;
39208;SDS011;24929;51.982;4.664;2023-05-08T11:31:08;40.92;;;17.42;;
39208;SDS011;24929;51.982;4.664;2023-05-08T11:33:34;17.25;;;14.13;;
39208;SDS011;24929;51.982;4.664;2023-05-08T11:41:01;17.67;;;13.75;;
39208;SDS011;24929;51.982;4.664;2023-05-08T11:46:21;17.98;;;13.45;;
39208;SDS011;24929;51.982;4.664;2023-05-08T11:48:46;21.23;;;13.90;;
39208;SDS011;24929;51.982;4.664;2023-05-08T11:51:11;15.88;;;13.32;;
39208;SDS011;24929;51.982;4.664;2023-05-08T11:53:40;18.33;;;14.75;;
39208;SDS011;24929;51.982;4.664;2023-05-08T11:56:07;18.67;;;13.63;;
39208;SDS011;24929;51.982;4.664;2023-05-08T11:58:33;17.98;;;12.85;;
39208;SDS011;24929;51.982;4.664;2023-05-08T12:00:58;18.17;;;13.63;;
39208;SDS011;24929;51.982;4.664;2023-05-08T12:03:24;17.80;;;13.65;;
39208;SDS011;24929;51.982;4.664;2023-05-08T12:05:49;19.17;;;14.20;;
39208;SDS011;24929;51.982;4.664;2023-05-08T12:08:16;16.73;;;13.07;;
39208;SDS011;24929;51.982;4.664;2023-05-08T12:13:26;16.42;;;13.35;;
39208;SDS011;24929;51.982;4.664;2023-05-08T12:15:54;16.08;;;13.40;;
39208;SDS011;24929;51.982;4.664;2023-05-08T12:18:22;20.15;;;14.35;;
39208;SDS011;24929;51.982;4.664;2023-05-08T12:20:51;17.63;;;13.30;;
39208;SDS011;24929;51.982;4.664;2023-05-08T12:23:21;19.02;;;13.38;;
39208;SDS011;24929;51.982;4.664;2023-05-08T12:25:50;19.95;;;14.18;;
39208;SDS011;24929;51.982;4.664;2023-05-08T12:28:17;18.48;;;13.05;;
39208;SDS011;24929;51.982;4.664;2023-05-08T12:30:42;14.50;;;11.45;;
39208;SDS011;24929;51.982;4.664;2023-05-08T12:33:08;19.05;;;12.68;;
39208;SDS011;24929;51.982;4.664;2023-05-08T12:35:35;18.50;;;11.52;;
39208;SDS011;24929;51.982;4.664;2023-05-08T12:38:02;12.88;;;11.15;;
39208;SDS011;24929;51.982;4.664;2023-05-08T12:40:34;13.40;;;10.88;;
39208;SDS011;24929;51.982;4.664;2023-05-08T12:43:04;16.85;;;11.60;;
39208;SDS011;24929;51.982;4.664;2023-05-08T12:45:31;13.52;;;11.98;;
39208;SDS011;24929;51.982;4.664;2023-05-08T12:48:01;19.42;;;12.90;;
39208;SDS011;24929;51.982;4.664;2023-05-08T12:50:28;15.13;;;12.05;;
39208;SDS011;24929;51.982;4.664;2023-05-08T12:53:04;19.10;;;13.50;;
39208;SDS011;24929;51.982;4.664;2023-05-08T12:55:31;19.95;;;13.43;;
39208;SDS011;24929;51.982;4.664;2023-05-08T13:00:41;17.67;;;12.73;;
39208;SDS011;24929;51.982;4.664;2023-05-08T13:03:10;18.38;;;14.13;;
39208;SDS011;24929;51.982;4.664;2023-05-08T13:05:39;25.80;;;15.85;;
39208;SDS011;24929;51.982;4.664;2023-05-08T13:08:06;20.38;;;14.20;;
39208;SDS011;24929;51.982;4.664;2023-05-08T13:13:19;19.40;;;14.43;;
39208;SDS011;24929;51.982;4.664;2023-05-08T13:15:46;28.13;;;16.38;;
39208;SDS011;24929;51.982;4.664;2023-05-08T13:18:12;23.80;;;16.50;;
39208;SDS011;24929;51.982;4.664;2023-05-08T13:20:38;29.42;;;18.08;;
39208;SDS011;24929;51.982;4.664;2023-05-08T13:23:04;27.80;;;17.95;;
39208;SDS011;24929;51.982;4.664;2023-05-08T13:25:30;26.65;;;19.17;;
39208;SDS011;24929;51.982;4.664;2023-05-08T13:27:57;34.65;;;21.40;;
39208;SDS011;24929;51.982;4.664;2023-05-08T13:30:23;40.45;;;23.25;;
39208;SDS011;24929;51.982;4.664;2023-05-08T13:32:49;33.45;;;23.13;;
39208;SDS011;24929;51.982;4.664;2023-05-08T13:35:15;39.92;;;24.05;;
39208;SDS011;24929;51.982;4.664;2023-05-08T13:37:41;38.78;;;23.63;;
39208;SDS011;24929;51.982;4.664;2023-05-08T13:40:07;44.67;;;28.33;;
39208;SDS011;24929;51.982;4.664;2023-05-08T13:42:33;51.15;;;29.05;;
39208;SDS011;24929;51.982;4.664;2023-05-08T13:44:58;45.10;;;27.60;;
39208;SDS011;24929;51.982;4.664;2023-05-08T13:47:24;51.08;;;32.55;;
39208;SDS011;24929;51.982;4.664;2023-05-08T13:49:49;60.08;;;35.33;;
39208;SDS011;24929;51.982;4.664;2023-05-08T13:52:15;67.57;;;36.80;;
39208;SDS011;24929;51.982;4.664;2023-05-08T13:54:41;72.07;;;38.10;;
39208;SDS011;24929;51.982;4.664;2023-05-08T13:57:06;66.53;;;38.45;;
39208;SDS011;24929;51.982;4.664;2023-05-08T13:59:32;71.13;;;38.53;;
39208;SDS011;24929;51.982;4.664;2023-05-08T14:01:59;70.43;;;38.30;;
39208;SDS011;24929;51.982;4.664;2023-05-08T14:04:24;69.22;;;40.58;;
39208;SDS011;24929;51.982;4.664;2023-05-08T14:06:49;70.22;;;37.38;;
39208;SDS011;24929;51.982;4.664;2023-05-08T14:09:15;69.25;;;38.25;;
39208;SDS011;24929;51.982;4.664;2023-05-08T14:11:40;67.65;;;37.15;;
39208;SDS011;24929;51.982;4.664;2023-05-08T14:14:06;65.72;;;37.05;;
39208;SDS011;24929;51.982;4.664;2023-05-08T14:16:31;66.05;;;35.53;;
39208;SDS011;24929;51.982;4.664;2023-05-08T14:18:57;75.38;;;40.80;;
39208;SDS011;24929;51.982;4.664;2023-05-08T14:21:22;68.55;;;38.35;;
39208;SDS011;24929;51.982;4.664;2023-05-08T14:23:48;62.58;;;37.17;;
39208;SDS011;24929;51.982;4.664;2023-05-08T14:26:13;65.82;;;37.17;;
39208;SDS011;24929;51.982;4.664;2023-05-08T14:28:38;62.38;;;32.35;;
39208;SDS011;24929;51.982;4.664;2023-05-08T14:31:04;67.30;;;33.33;;
39208;SDS011;24929;51.982;4.664;2023-05-08T14:33:30;66.32;;;33.85;;
39208;SDS011;24929;51.982;4.664;2023-05-08T14:35:55;56.40;;;31.92;;
39208;SDS011;24929;51.982;4.664;2023-05-08T14:38:21;48.75;;;30.85;;
39208;SDS011;24929;51.982;4.664;2023-05-08T14:40:49;52.28;;;29.40;;
39208;SDS011;24929;51.982;4.664;2023-05-08T14:43:15;46.75;;;27.88;;
39208;SDS011;24929;51.982;4.664;2023-05-08T14:45:41;44.85;;;28.00;;
39208;SDS011;24929;51.982;4.664;2023-05-08T14:48:06;57.00;;;31.77;;
39208;SDS011;24929;51.982;4.664;2023-05-08T14:50:32;43.25;;;28.13;;
39208;SDS011;24929;51.982;4.664;2023-05-08T14:52:57;41.97;;;24.67;;
39208;SDS011;24929;51.982;4.664;2023-05-08T14:55:22;35.53;;;24.52;;
39208;SDS011;24929;51.982;4.664;2023-05-08T14:57:48;41.17;;;25.17;;
39208;SDS011;24929;51.982;4.664;2023-05-08T15:00:14;40.15;;;24.13;;
39208;SDS011;24929;51.982;4.664;2023-05-08T15:02:41;39.30;;;23.05;;
39208;SDS011;24929;51.982;4.664;2023-05-08T15:05:06;44.80;;;23.70;;
39208;SDS011;24929;51.982;4.664;2023-05-08T15:07:32;42.35;;;21.50;;
39208;SDS011;24929;51.982;4.664;2023-05-08T15:09:58;33.60;;;21.65;;
39208;SDS011;24929;51.982;4.664;2023-05-08T15:12:23;40.35;;;21.98;;
39208;SDS011;24929;51.982;4.664;2023-05-08T15:14:52;38.53;;;23.58;;
39208;SDS011;24929;51.982;4.664;2023-05-08T15:17:17;36.10;;;21.80;;
39208;SDS011;24929;51.982;4.664;2023-05-08T15:19:43;29.73;;;20.75;;
39208;SDS011;24929;51.982;4.664;2023-05-08T15:22:09;25.58;;;18.35;;
39208;SDS011;24929;51.982;4.664;2023-05-08T15:24:35;27.73;;;18.20;;
39208;SDS011;24929;51.982;4.664;2023-05-08T15:27:00;27.70;;;19.23;;
39208;SDS011;24929;51.982;4.664;2023-05-08T15:29:26;28.30;;;18.65;;
39208;SDS011;24929;51.982;4.664;2023-05-08T15:31:51;26.05;;;18.50;;
39208;SDS011;24929;51.982;4.664;2023-05-08T15:34:17;30.02;;;19.70;;
39208;SDS011;24929;51.982;4.664;2023-05-08T15:36:42;28.65;;;18.92;;
39208;SDS011;24929;51.982;4.664;2023-05-08T15:39:07;30.52;;;19.05;;
39208;SDS011;24929;51.982;4.664;2023-05-08T15:41:33;35.30;;;19.50;;
39208;SDS011;24929;51.982;4.664;2023-05-08T15:44:00;30.00;;;18.70;;
39208;SDS011;24929;51.982;4.664;2023-05-08T15:46:26;26.40;;;17.48;;
39208;SDS011;24929;51.982;4.664;2023-05-08T15:48:51;30.17;;;16.17;;